sensor_id;sensor_type;location;lat;lon;timestamp;temperature;humidity
16114;DHT22;8161;-33.910;151.156;2023-02-04T00:01:10;24.60;93.30
16114;DHT22;8161;-33.910;151.156;2023-02-04T00:03:37;24.50;93.40
16114;DHT22;8161;-33.910;151.156;2023-02-04T00:06:05;24.90;93.30
16114;DHT22;8161;-33.910;151.156;2023-02-04T00:08:32;24.70;92.60
16114;DHT22;8161;-33.910;151.156;2023-02-04T00:10:59;24.50;92.70
16114;DHT22;8161;-33.910;151.156;2023-02-04T00:13:26;24.40;92.90
16114;DHT22;8161;-33.910;151.156;2023-02-04T00:15:57;24.30;92.10
16114;DHT22;8161;-33.910;151.156;2023-02-04T00:18:25;24.60;91.50
16114;DHT22;8161;-33.910;151.156;2023-02-04T00:20:52;25.00;92.40
16114;DHT22;8161;-33.910;151.156;2023-02-04T00:23:19;24.40;92.10
16114;DHT22;8161;-33.910;151.156;2023-02-04T00:25:46;24.30;91.80
16114;DHT22;8161;-33.910;151.156;2023-02-04T00:28:14;24.50;91.60
16114;DHT22;8161;-33.910;151.156;2023-02-04T00:30:41;24.70;91.60
16114;DHT22;8161;-33.910;151.156;2023-02-04T00:33:08;24.60;91.50
16114;DHT22;8161;-33.910;151.156;2023-02-04T00:35:35;25.00;91.50
16114;DHT22;8161;-33.910;151.156;2023-02-04T00:38:05;24.90;91.50
16114;DHT22;8161;-33.910;151.156;2023-02-04T00:40:33;25.00;91.00
16114;DHT22;8161;-33.910;151.156;2023-02-04T00:43:00;25.00;91.50
16114;DHT22;8161;-33.910;151.156;2023-02-04T00:45:27;25.80;91.00
16114;DHT22;8161;-33.910;151.156;2023-02-04T00:47:55;24.90;91.60
16114;DHT22;8161;-33.910;151.156;2023-02-04T00:50:23;25.20;87.10
16114;DHT22;8161;-33.910;151.156;2023-02-04T00:52:50;24.90;88.70
16114;DHT22;8161;-33.910;151.156;2023-02-04T00:55:18;24.60;91.30
16114;DHT22;8161;-33.910;151.156;2023-02-04T00:57:46;25.60;91.30
16114;DHT22;8161;-33.910;151.156;2023-02-04T01:00:14;25.80;91.40
16114;DHT22;8161;-33.910;151.156;2023-02-04T01:02:41;25.50;90.50
16114;DHT22;8161;-33.910;151.156;2023-02-04T01:05:09;26.10;91.20
16114;DHT22;8161;-33.910;151.156;2023-02-04T01:07:36;25.70;90.10
16114;DHT22;8161;-33.910;151.156;2023-02-04T01:10:04;26.00;89.60
16114;DHT22;8161;-33.910;151.156;2023-02-04T01:12:32;26.70;89.40
16114;DHT22;8161;-33.910;151.156;2023-02-04T01:14:59;26.10;82.50
16114;DHT22;8161;-33.910;151.156;2023-02-04T01:17:26;26.40;82.90
16114;DHT22;8161;-33.910;151.156;2023-02-04T01:19:54;26.10;85.00
16114;DHT22;8161;-33.910;151.156;2023-02-04T01:22:21;26.20;84.30
16114;DHT22;8161;-33.910;151.156;2023-02-04T01:24:48;26.00;85.90
16114;DHT22;8161;-33.910;151.156;2023-02-04T01:27:16;25.80;81.60
16114;DHT22;8161;-33.910;151.156;2023-02-04T01:29:43;26.10;81.00
16114;DHT22;8161;-33.910;151.156;2023-02-04T01:32:11;26.60;85.30
16114;DHT22;8161;-33.910;151.156;2023-02-04T01:34:38;26.50;85.20
16114;DHT22;8161;-33.910;151.156;2023-02-04T01:37:05;26.60;84.90
16114;DHT22;8161;-33.910;151.156;2023-02-04T01:39:33;26.90;85.80
16114;DHT22;8161;-33.910;151.156;2023-02-04T01:42:01;26.40;83.20
16114;DHT22;8161;-33.910;151.156;2023-02-04T01:44:28;26.60;78.50
16114;DHT22;8161;-33.910;151.156;2023-02-04T01:46:56;26.70;78.90
16114;DHT22;8161;-33.910;151.156;2023-02-04T01:49:24;26.70;85.20
16114;DHT22;8161;-33.910;151.156;2023-02-04T01:51:51;26.80;81.00
16114;DHT22;8161;-33.910;151.156;2023-02-04T01:54:19;27.50;81.80
16114;DHT22;8161;-33.910;151.156;2023-02-04T01:56:47;27.10;77.60
16114;DHT22;8161;-33.910;151.156;2023-02-04T01:59:17;27.50;81.50
16114;DHT22;8161;-33.910;151.156;2023-02-04T02:01:52;26.80;81.60
16114;DHT22;8161;-33.910;151.156;2023-02-04T02:04:31;27.40;83.10
16114;DHT22;8161;-33.910;151.156;2023-02-04T02:07:02;27.60;80.40
16114;DHT22;8161;-33.910;151.156;2023-02-04T02:09:31;27.50;75.10
16114;DHT22;8161;-33.910;151.156;2023-02-04T02:12:01;27.10;78.50
16114;DHT22;8161;-33.910;151.156;2023-02-04T02:14:29;28.00;81.10
16114;DHT22;8161;-33.910;151.156;2023-02-04T02:16:56;28.00;76.10
16114;DHT22;8161;-33.910;151.156;2023-02-04T02:19:31;27.50;75.60
16114;DHT22;8161;-33.910;151.156;2023-02-04T02:24:53;27.70;73.10
16114;DHT22;8161;-33.910;151.156;2023-02-04T02:27:21;27.80;77.10
16114;DHT22;8161;-33.910;151.156;2023-02-04T02:29:49;27.90;76.00
16114;DHT22;8161;-33.910;151.156;2023-02-04T02:32:17;27.50;77.00
16114;DHT22;8161;-33.910;151.156;2023-02-04T02:34:46;27.90;77.00
16114;DHT22;8161;-33.910;151.156;2023-02-04T02:37:13;28.10;75.20
16114;DHT22;8161;-33.910;151.156;2023-02-04T02:39:43;27.50;76.10
16114;DHT22;8161;-33.910;151.156;2023-02-04T02:42:28;28.50;76.80
16114;DHT22;8161;-33.910;151.156;2023-02-04T02:45:07;28.10;76.50
16114;DHT22;8161;-33.910;151.156;2023-02-04T02:47:35;28.00;73.70
16114;DHT22;8161;-33.910;151.156;2023-02-04T02:50:02;27.70;73.60
16114;DHT22;8161;-33.910;151.156;2023-02-04T02:52:30;28.00;68.20
16114;DHT22;8161;-33.910;151.156;2023-02-04T02:54:57;27.90;73.60
16114;DHT22;8161;-33.910;151.156;2023-02-04T02:57:24;28.70;75.60
16114;DHT22;8161;-33.910;151.156;2023-02-04T02:59:51;28.80;75.10
16114;DHT22;8161;-33.910;151.156;2023-02-04T03:02:21;28.30;74.30
16114;DHT22;8161;-33.910;151.156;2023-02-04T03:04:55;29.00;72.00
16114;DHT22;8161;-33.910;151.156;2023-02-04T03:07:26;28.80;64.50
16114;DHT22;8161;-33.910;151.156;2023-02-04T03:09:54;29.10;68.80
16114;DHT22;8161;-33.910;151.156;2023-02-04T03:12:21;28.50;68.60
16114;DHT22;8161;-33.910;151.156;2023-02-04T03:14:48;28.50;71.60
16114;DHT22;8161;-33.910;151.156;2023-02-04T03:17:16;28.80;69.50
16114;DHT22;8161;-33.910;151.156;2023-02-04T03:19:52;28.80;64.80
16114;DHT22;8161;-33.910;151.156;2023-02-04T03:22:20;28.90;61.10
16114;DHT22;8161;-33.910;151.156;2023-02-04T03:24:47;29.50;67.70
16114;DHT22;8161;-33.910;151.156;2023-02-04T03:27:15;29.10;63.80
16114;DHT22;8161;-33.910;151.156;2023-02-04T03:29:45;28.50;64.50
16114;DHT22;8161;-33.910;151.156;2023-02-04T03:32:13;29.20;65.00
16114;DHT22;8161;-33.910;151.156;2023-02-04T03:34:40;28.80;59.50
16114;DHT22;8161;-33.910;151.156;2023-02-04T03:37:08;28.70;64.70
16114;DHT22;8161;-33.910;151.156;2023-02-04T03:39:35;29.40;63.70
16114;DHT22;8161;-33.910;151.156;2023-02-04T03:42:03;28.80;63.00
16114;DHT22;8161;-33.910;151.156;2023-02-04T03:44:30;29.40;63.30
16114;DHT22;8161;-33.910;151.156;2023-02-04T03:46:58;29.30;58.30
16114;DHT22;8161;-33.910;151.156;2023-02-04T03:49:25;28.80;61.10
16114;DHT22;8161;-33.910;151.156;2023-02-04T03:51:53;29.40;62.40
16114;DHT22;8161;-33.910;151.156;2023-02-04T03:54:21;29.30;62.10
16114;DHT22;8161;-33.910;151.156;2023-02-04T03:56:49;29.60;60.70
16114;DHT22;8161;-33.910;151.156;2023-02-04T03:59:16;29.90;53.70
16114;DHT22;8161;-33.910;151.156;2023-02-04T04:01:43;29.50;59.00
16114;DHT22;8161;-33.910;151.156;2023-02-04T04:04:11;29.90;58.80
16114;DHT22;8161;-33.910;151.156;2023-02-04T04:06:43;30.40;60.70
16114;DHT22;8161;-33.910;151.156;2023-02-04T04:09:10;30.20;59.90
16114;DHT22;8161;-33.910;151.156;2023-02-04T04:11:38;30.10;58.60
16114;DHT22;8161;-33.910;151.156;2023-02-04T04:14:05;29.40;57.80
16114;DHT22;8161;-33.910;151.156;2023-02-04T04:16:33;29.70;57.80
16114;DHT22;8161;-33.910;151.156;2023-02-04T04:19:00;30.20;57.10
16114;DHT22;8161;-33.910;151.156;2023-02-04T04:21:27;29.90;57.20
16114;DHT22;8161;-33.910;151.156;2023-02-04T04:23:54;29.70;57.30
16114;DHT22;8161;-33.910;151.156;2023-02-04T04:26:22;29.70;56.40
16114;DHT22;8161;-33.910;151.156;2023-02-04T04:28:50;30.10;57.40
16114;DHT22;8161;-33.910;151.156;2023-02-04T04:31:18;30.40;55.10
16114;DHT22;8161;-33.910;151.156;2023-02-04T04:33:45;30.30;54.80
16114;DHT22;8161;-33.910;151.156;2023-02-04T04:36:12;29.90;54.50
16114;DHT22;8161;-33.910;151.156;2023-02-04T04:38:40;30.40;55.20
16114;DHT22;8161;-33.910;151.156;2023-02-04T04:41:07;30.50;54.80
16114;DHT22;8161;-33.910;151.156;2023-02-04T04:43:34;31.00;54.80
16114;DHT22;8161;-33.910;151.156;2023-02-04T04:46:02;30.40;54.50
16114;DHT22;8161;-33.910;151.156;2023-02-04T04:48:29;30.80;55.70
16114;DHT22;8161;-33.910;151.156;2023-02-04T04:50:56;30.40;54.70
16114;DHT22;8161;-33.910;151.156;2023-02-04T04:53:23;30.40;55.70
16114;DHT22;8161;-33.910;151.156;2023-02-04T04:55:51;30.20;55.10
16114;DHT22;8161;-33.910;151.156;2023-02-04T04:58:18;30.30;54.00
16114;DHT22;8161;-33.910;151.156;2023-02-04T05:00:45;30.40;55.40
16114;DHT22;8161;-33.910;151.156;2023-02-04T05:03:13;30.30;53.80
16114;DHT22;8161;-33.910;151.156;2023-02-04T05:05:41;30.40;54.70
16114;DHT22;8161;-33.910;151.156;2023-02-04T05:08:09;30.40;54.80
16114;DHT22;8161;-33.910;151.156;2023-02-04T05:10:40;30.60;54.50
16114;DHT22;8161;-33.910;151.156;2023-02-04T05:13:07;30.50;54.50
16114;DHT22;8161;-33.910;151.156;2023-02-04T05:15:35;30.90;54.90
16114;DHT22;8161;-33.910;151.156;2023-02-04T05:18:02;30.80;53.60
16114;DHT22;8161;-33.910;151.156;2023-02-04T05:20:30;30.40;54.40
16114;DHT22;8161;-33.910;151.156;2023-02-04T05:22:57;30.70;50.30
16114;DHT22;8161;-33.910;151.156;2023-02-04T05:25:27;28.80;48.80
16114;DHT22;8161;-33.910;151.156;2023-02-04T05:27:58;31.70;54.90
16114;DHT22;8161;-33.910;151.156;2023-02-04T05:30:25;31.20;54.40
16114;DHT22;8161;-33.910;151.156;2023-02-04T05:32:52;30.80;54.00
16114;DHT22;8161;-33.910;151.156;2023-02-04T05:35:20;31.30;54.20
16114;DHT22;8161;-33.910;151.156;2023-02-04T05:37:47;30.90;54.60
16114;DHT22;8161;-33.910;151.156;2023-02-04T05:40:14;31.10;55.00
16114;DHT22;8161;-33.910;151.156;2023-02-04T05:42:42;30.90;54.00
16114;DHT22;8161;-33.910;151.156;2023-02-04T05:45:14;31.10;54.30
16114;DHT22;8161;-33.910;151.156;2023-02-04T05:47:41;31.10;54.00
16114;DHT22;8161;-33.910;151.156;2023-02-04T05:50:09;30.90;51.70
16114;DHT22;8161;-33.910;151.156;2023-02-04T05:52:37;31.00;50.60
16114;DHT22;8161;-33.910;151.156;2023-02-04T05:55:06;31.00;55.20
16114;DHT22;8161;-33.910;151.156;2023-02-04T05:57:33;31.70;55.20
16114;DHT22;8161;-33.910;151.156;2023-02-04T06:00:01;31.50;50.20
16114;DHT22;8161;-33.910;151.156;2023-02-04T06:02:28;31.70;53.40
16114;DHT22;8161;-33.910;151.156;2023-02-04T06:04:55;31.70;50.10
16114;DHT22;8161;-33.910;151.156;2023-02-04T06:07:23;31.90;48.50
16114;DHT22;8161;-33.910;151.156;2023-02-04T06:09:50;31.80;49.10
16114;DHT22;8161;-33.910;151.156;2023-02-04T06:12:17;32.10;51.50
16114;DHT22;8161;-33.910;151.156;2023-02-04T06:14:44;32.20;51.70
16114;DHT22;8161;-33.910;151.156;2023-02-04T06:17:11;32.20;52.00
16114;DHT22;8161;-33.910;151.156;2023-02-04T06:19:39;31.90;52.70
16114;DHT22;8161;-33.910;151.156;2023-02-04T06:22:06;32.20;51.20
16114;DHT22;8161;-33.910;151.156;2023-02-04T06:24:34;32.10;51.90
16114;DHT22;8161;-33.910;151.156;2023-02-04T06:27:02;31.80;52.00
16114;DHT22;8161;-33.910;151.156;2023-02-04T06:29:29;31.60;52.10
16114;DHT22;8161;-33.910;151.156;2023-02-04T06:31:56;31.80;48.30
16114;DHT22;8161;-33.910;151.156;2023-02-04T06:34:26;31.70;52.00
16114;DHT22;8161;-33.910;151.156;2023-02-04T06:36:54;31.90;52.40
16114;DHT22;8161;-33.910;151.156;2023-02-04T06:39:21;32.00;52.40
16114;DHT22;8161;-33.910;151.156;2023-02-04T06:41:49;32.20;48.90
16114;DHT22;8161;-33.910;151.156;2023-02-04T06:44:16;32.90;52.20
16114;DHT22;8161;-33.910;151.156;2023-02-04T06:46:43;32.90;51.90
16114;DHT22;8161;-33.910;151.156;2023-02-04T06:49:10;32.40;52.00
16114;DHT22;8161;-33.910;151.156;2023-02-04T06:51:38;31.90;51.30
16114;DHT22;8161;-33.910;151.156;2023-02-04T06:54:05;32.10;51.80
16114;DHT22;8161;-33.910;151.156;2023-02-04T06:56:32;31.80;52.70
16114;DHT22;8161;-33.910;151.156;2023-02-04T06:58:59;31.80;48.60
16114;DHT22;8161;-33.910;151.156;2023-02-04T07:01:27;31.60;52.30
16114;DHT22;8161;-33.910;151.156;2023-02-04T07:03:54;31.60;53.00
16114;DHT22;8161;-33.910;151.156;2023-02-04T07:06:21;31.80;52.90
16114;DHT22;8161;-33.910;151.156;2023-02-04T07:08:49;31.50;48.80
16114;DHT22;8161;-33.910;151.156;2023-02-04T07:11:18;31.50;49.30
16114;DHT22;8161;-33.910;151.156;2023-02-04T07:13:45;32.00;55.30
16114;DHT22;8161;-33.910;151.156;2023-02-04T07:16:12;31.30;53.20
16114;DHT22;8161;-33.910;151.156;2023-02-04T07:18:40;31.30;52.90
16114;DHT22;8161;-33.910;151.156;2023-02-04T07:21:07;31.90;53.20
16114;DHT22;8161;-33.910;151.156;2023-02-04T07:23:34;32.00;53.50
16114;DHT22;8161;-33.910;151.156;2023-02-04T07:26:01;31.60;49.80
16114;DHT22;8161;-33.910;151.156;2023-02-04T07:28:29;31.40;53.70
16114;DHT22;8161;-33.910;151.156;2023-02-04T07:30:56;31.10;54.90
16114;DHT22;8161;-33.910;151.156;2023-02-04T07:33:24;31.40;55.00
16114;DHT22;8161;-33.910;151.156;2023-02-04T07:35:53;31.00;50.30
16114;DHT22;8161;-33.910;151.156;2023-02-04T07:38:20;31.00;50.60
16114;DHT22;8161;-33.910;151.156;2023-02-04T07:40:48;31.20;50.40
16114;DHT22;8161;-33.910;151.156;2023-02-04T07:43:15;31.30;50.50
16114;DHT22;8161;-33.910;151.156;2023-02-04T07:45:42;31.20;50.40
16114;DHT22;8161;-33.910;151.156;2023-02-04T07:48:09;31.10;51.00
16114;DHT22;8161;-33.910;151.156;2023-02-04T07:50:37;30.80;50.90
16114;DHT22;8161;-33.910;151.156;2023-02-04T07:53:04;30.80;51.40
16114;DHT22;8161;-33.910;151.156;2023-02-04T07:55:31;31.10;51.50
16114;DHT22;8161;-33.910;151.156;2023-02-04T07:57:58;31.20;50.90
16114;DHT22;8161;-33.910;151.156;2023-02-04T08:00:26;31.00;57.30
16114;DHT22;8161;-33.910;151.156;2023-02-04T08:02:53;29.90;57.00
16114;DHT22;8161;-33.910;151.156;2023-02-04T08:05:20;29.30;57.40
16114;DHT22;8161;-33.910;151.156;2023-02-04T08:07:48;29.00;57.80
16114;DHT22;8161;-33.910;151.156;2023-02-04T08:10:18;29.10;58.70
16114;DHT22;8161;-33.910;151.156;2023-02-04T08:12:50;29.00;53.60
16114;DHT22;8161;-33.910;151.156;2023-02-04T08:15:17;29.00;59.00
16114;DHT22;8161;-33.910;151.156;2023-02-04T08:17:45;28.20;59.50
16114;DHT22;8161;-33.910;151.156;2023-02-04T08:20:12;28.20;60.10
16114;DHT22;8161;-33.910;151.156;2023-02-04T08:22:39;28.60;60.50
16114;DHT22;8161;-33.910;151.156;2023-02-04T08:25:08;28.10;60.10
16114;DHT22;8161;-33.910;151.156;2023-02-04T08:27:40;28.50;60.40
16114;DHT22;8161;-33.910;151.156;2023-02-04T08:30:08;28.20;60.70
16114;DHT22;8161;-33.910;151.156;2023-02-04T08:32:36;28.00;61.00
16114;DHT22;8161;-33.910;151.156;2023-02-04T08:35:05;27.70;61.50
16114;DHT22;8161;-33.910;151.156;2023-02-04T08:37:33;27.60;61.80
16114;DHT22;8161;-33.910;151.156;2023-02-04T08:40:00;27.80;62.50
16114;DHT22;8161;-33.910;151.156;2023-02-04T08:42:27;28.10;62.90
16114;DHT22;8161;-33.910;151.156;2023-02-04T08:44:55;27.70;62.70
16114;DHT22;8161;-33.910;151.156;2023-02-04T08:47:22;27.60;63.10
16114;DHT22;8161;-33.910;151.156;2023-02-04T08:49:49;27.70;63.10
16114;DHT22;8161;-33.910;151.156;2023-02-04T08:52:17;27.60;56.70
16114;DHT22;8161;-33.910;151.156;2023-02-04T08:54:44;27.70;63.40
16114;DHT22;8161;-33.910;151.156;2023-02-04T08:57:12;27.40;62.70
16114;DHT22;8161;-33.910;151.156;2023-02-04T08:59:39;27.60;63.10
16114;DHT22;8161;-33.910;151.156;2023-02-04T09:02:08;27.50;58.00
16114;DHT22;8161;-33.910;151.156;2023-02-04T09:04:35;27.30;62.90
16114;DHT22;8161;-33.910;151.156;2023-02-04T09:07:02;27.10;56.80
16114;DHT22;8161;-33.910;151.156;2023-02-04T09:09:29;27.20;64.70
16114;DHT22;8161;-33.910;151.156;2023-02-04T09:11:57;27.10;63.30
16114;DHT22;8161;-33.910;151.156;2023-02-04T09:14:24;26.70;63.20
16114;DHT22;8161;-33.910;151.156;2023-02-04T09:16:52;26.90;57.30
16114;DHT22;8161;-33.910;151.156;2023-02-04T09:19:19;26.90;57.70
16114;DHT22;8161;-33.910;151.156;2023-02-04T09:21:52;27.20;64.10
16114;DHT22;8161;-33.910;151.156;2023-02-04T09:24:19;26.80;57.60
16114;DHT22;8161;-33.910;151.156;2023-02-04T09:26:49;27.00;64.60
16114;DHT22;8161;-33.910;151.156;2023-02-04T09:29:16;26.90;64.50
16114;DHT22;8161;-33.910;151.156;2023-02-04T09:31:44;26.20;63.70
16114;DHT22;8161;-33.910;151.156;2023-02-04T09:34:11;26.30;63.80
16114;DHT22;8161;-33.910;151.156;2023-02-04T09:36:40;26.30;59.00
16114;DHT22;8161;-33.910;151.156;2023-02-04T09:39:08;26.30;64.60
16114;DHT22;8161;-33.910;151.156;2023-02-04T09:41:39;26.80;65.10
16114;DHT22;8161;-33.910;151.156;2023-02-04T09:44:16;27.00;65.50
16114;DHT22;8161;-33.910;151.156;2023-02-04T09:46:53;26.10;65.00
16114;DHT22;8161;-33.910;151.156;2023-02-04T09:49:20;26.40;65.30
16114;DHT22;8161;-33.910;151.156;2023-02-04T09:51:49;26.70;66.10
16114;DHT22;8161;-33.910;151.156;2023-02-04T09:54:18;26.30;66.00
16114;DHT22;8161;-33.910;151.156;2023-02-04T09:56:47;26.40;66.40
16114;DHT22;8161;-33.910;151.156;2023-02-04T09:59:19;26.60;66.70
16114;DHT22;8161;-33.910;151.156;2023-02-04T10:04:47;26.20;59.80
16114;DHT22;8161;-33.910;151.156;2023-02-04T10:07:17;26.60;67.30
16114;DHT22;8161;-33.910;151.156;2023-02-04T10:09:47;26.20;60.20
16114;DHT22;8161;-33.910;151.156;2023-02-04T10:12:15;26.40;67.60
16114;DHT22;8161;-33.910;151.156;2023-02-04T10:14:43;25.80;67.30
16114;DHT22;8161;-33.910;151.156;2023-02-04T10:17:19;26.10;60.40
16114;DHT22;8161;-33.910;151.156;2023-02-04T10:19:48;26.00;67.60
16114;DHT22;8161;-33.910;151.156;2023-02-04T10:22:20;26.10;66.90
16114;DHT22;8161;-33.910;151.156;2023-02-04T10:24:49;26.20;68.30
16114;DHT22;8161;-33.910;151.156;2023-02-04T10:27:16;26.10;64.60
16114;DHT22;8161;-33.910;151.156;2023-02-04T10:29:55;26.40;68.40
16114;DHT22;8161;-33.910;151.156;2023-02-04T10:32:32;25.60;68.70
16114;DHT22;8161;-33.910;151.156;2023-02-04T10:35:01;26.20;68.90
16114;DHT22;8161;-33.910;151.156;2023-02-04T10:37:29;26.30;69.20
16114;DHT22;8161;-33.910;151.156;2023-02-04T10:39:57;26.00;69.40
16114;DHT22;8161;-33.910;151.156;2023-02-04T10:42:27;26.00;69.30
16114;DHT22;8161;-33.910;151.156;2023-02-04T10:44:55;25.90;70.00
16114;DHT22;8161;-33.910;151.156;2023-02-04T10:47:24;25.70;69.90
16114;DHT22;8161;-33.910;151.156;2023-02-04T10:52:40;25.90;71.80
16114;DHT22;8161;-33.910;151.156;2023-02-04T10:55:16;25.70;70.90
16114;DHT22;8161;-33.910;151.156;2023-02-04T10:57:48;25.70;71.20
16114;DHT22;8161;-33.910;151.156;2023-02-04T11:00:23;25.60;71.80
16114;DHT22;8161;-33.910;151.156;2023-02-04T11:05:33;26.00;69.70
16114;DHT22;8161;-33.910;151.156;2023-02-04T11:08:02;25.50;70.40
16114;DHT22;8161;-33.910;151.156;2023-02-04T11:10:33;25.80;70.30
16114;DHT22;8161;-33.910;151.156;2023-02-04T11:13:06;25.20;69.90
16114;DHT22;8161;-33.910;151.156;2023-02-04T11:18:45;25.80;71.40
16114;DHT22;8161;-33.910;151.156;2023-02-04T11:26:50;25.10;71.50
16114;DHT22;8161;-33.910;151.156;2023-02-04T11:29:35;25.40;73.00
16114;DHT22;8161;-33.910;151.156;2023-02-04T11:34:45;25.80;69.10
16114;DHT22;8161;-33.910;151.156;2023-02-04T11:37:16;25.30;67.40
16114;DHT22;8161;-33.910;151.156;2023-02-04T11:39:46;25.40;75.80
16114;DHT22;8161;-33.910;151.156;2023-02-04T11:42:23;25.30;75.50
16114;DHT22;8161;-33.910;151.156;2023-02-04T11:44:59;25.40;74.70
16114;DHT22;8161;-33.910;151.156;2023-02-04T11:47:32;25.20;75.90
16114;DHT22;8161;-33.910;151.156;2023-02-04T11:50:08;25.20;68.80
16114;DHT22;8161;-33.910;151.156;2023-02-04T11:52:37;25.50;77.80
16114;DHT22;8161;-33.910;151.156;2023-02-04T11:55:04;25.00;78.10
16114;DHT22;8161;-33.910;151.156;2023-02-04T11:57:38;24.80;74.00
16114;DHT22;8161;-33.910;151.156;2023-02-04T12:00:13;24.70;77.00
16114;DHT22;8161;-33.910;151.156;2023-02-04T12:02:47;25.40;78.90
16114;DHT22;8161;-33.910;151.156;2023-02-04T12:05:19;24.80;76.70
16114;DHT22;8161;-33.910;151.156;2023-02-04T12:07:47;25.20;77.70
16114;DHT22;8161;-33.910;151.156;2023-02-04T12:12:53;25.00;78.50
16114;DHT22;8161;-33.910;151.156;2023-02-04T12:15:34;24.70;78.00
16114;DHT22;8161;-33.910;151.156;2023-02-04T12:18:07;24.90;79.60
16114;DHT22;8161;-33.910;151.156;2023-02-04T12:20:35;24.60;79.00
16114;DHT22;8161;-33.910;151.156;2023-02-04T12:23:03;24.50;79.50
16114;DHT22;8161;-33.910;151.156;2023-02-04T12:25:30;24.60;79.00
16114;DHT22;8161;-33.910;151.156;2023-02-04T12:27:58;24.20;79.00
16114;DHT22;8161;-33.910;151.156;2023-02-04T12:30:26;24.40;79.90
16114;DHT22;8161;-33.910;151.156;2023-02-04T12:32:53;24.30;80.40
16114;DHT22;8161;-33.910;151.156;2023-02-04T12:35:20;24.50;73.90
16114;DHT22;8161;-33.910;151.156;2023-02-04T12:37:47;24.20;81.30
16114;DHT22;8161;-33.910;151.156;2023-02-04T12:40:16;24.30;81.10
16114;DHT22;8161;-33.910;151.156;2023-02-04T12:42:44;24.20;81.40
16114;DHT22;8161;-33.910;151.156;2023-02-04T12:45:14;24.30;76.00
16114;DHT22;8161;-33.910;151.156;2023-02-04T12:47:42;23.90;81.90
16114;DHT22;8161;-33.910;151.156;2023-02-04T12:50:11;24.20;81.80
16114;DHT22;8161;-33.910;151.156;2023-02-04T12:52:39;23.90;81.80
16114;DHT22;8161;-33.910;151.156;2023-02-04T12:55:08;24.30;82.70
16114;DHT22;8161;-33.910;151.156;2023-02-04T12:57:36;23.90;82.50
16114;DHT22;8161;-33.910;151.156;2023-02-04T13:00:04;24.20;82.60
16114;DHT22;8161;-33.910;151.156;2023-02-04T13:02:32;24.20;82.70
16114;DHT22;8161;-33.910;151.156;2023-02-04T13:04:59;24.30;82.80
16114;DHT22;8161;-33.910;151.156;2023-02-04T13:07:27;24.10;75.10
16114;DHT22;8161;-33.910;151.156;2023-02-04T13:09:54;23.80;83.30
16114;DHT22;8161;-33.910;151.156;2023-02-04T13:12:22;24.20;82.90
16114;DHT22;8161;-33.910;151.156;2023-02-04T13:14:50;24.10;75.30
16114;DHT22;8161;-33.910;151.156;2023-02-04T13:17:17;23.80;82.80
16114;DHT22;8161;-33.910;151.156;2023-02-04T13:19:44;23.80;83.20
16114;DHT22;8161;-33.910;151.156;2023-02-04T13:22:11;24.20;83.50
16114;DHT22;8161;-33.910;151.156;2023-02-04T13:24:39;23.90;75.60
16114;DHT22;8161;-33.910;151.156;2023-02-04T13:27:06;23.80;78.80
16114;DHT22;8161;-33.910;151.156;2023-02-04T13:29:33;23.70;76.10
16114;DHT22;8161;-33.910;151.156;2023-02-04T13:32:00;23.40;84.10
16114;DHT22;8161;-33.910;151.156;2023-02-04T13:34:28;23.60;84.60
16114;DHT22;8161;-33.910;151.156;2023-02-04T13:36:55;23.30;77.60
16114;DHT22;8161;-33.910;151.156;2023-02-04T13:39:23;23.60;84.80
16114;DHT22;8161;-33.910;151.156;2023-02-04T13:41:51;23.50;78.60
16114;DHT22;8161;-33.910;151.156;2023-02-04T13:44:18;23.60;85.20
16114;DHT22;8161;-33.910;151.156;2023-02-04T13:46:48;23.70;85.60
16114;DHT22;8161;-33.910;151.156;2023-02-04T13:49:15;23.80;86.20
16114;DHT22;8161;-33.910;151.156;2023-02-04T13:51:42;24.00;79.40
16114;DHT22;8161;-33.910;151.156;2023-02-04T13:54:09;23.40;86.60
16114;DHT22;8161;-33.910;151.156;2023-02-04T13:56:37;24.00;86.70
16114;DHT22;8161;-33.910;151.156;2023-02-04T13:59:10;23.50;86.60
16114;DHT22;8161;-33.910;151.156;2023-02-04T14:01:37;23.40;79.30
16114;DHT22;8161;-33.910;151.156;2023-02-04T14:04:04;23.70;87.30
16114;DHT22;8161;-33.910;151.156;2023-02-04T14:06:31;23.50;87.30
16114;DHT22;8161;-33.910;151.156;2023-02-04T14:09:03;23.00;87.50
16114;DHT22;8161;-33.910;151.156;2023-02-04T14:11:31;23.70;88.10
16114;DHT22;8161;-33.910;151.156;2023-02-04T14:13:58;23.20;88.10
16114;DHT22;8161;-33.910;151.156;2023-02-04T14:16:25;23.20;88.20
16114;DHT22;8161;-33.910;151.156;2023-02-04T14:18:53;23.00;89.10
16114;DHT22;8161;-33.910;151.156;2023-02-04T14:21:20;23.40;88.90
16114;DHT22;8161;-33.910;151.156;2023-02-04T14:23:48;23.00;88.70
16114;DHT22;8161;-33.910;151.156;2023-02-04T14:26:15;23.00;89.00
16114;DHT22;8161;-33.910;151.156;2023-02-04T14:28:43;23.50;89.40
16114;DHT22;8161;-33.910;151.156;2023-02-04T14:31:10;23.10;89.50
16114;DHT22;8161;-33.910;151.156;2023-02-04T14:33:37;23.50;89.90
16114;DHT22;8161;-33.910;151.156;2023-02-04T14:36:04;23.10;82.30
16114;DHT22;8161;-33.910;151.156;2023-02-04T14:38:32;22.90;90.10
16114;DHT22;8161;-33.910;151.156;2023-02-04T14:40:59;23.40;90.40
16114;DHT22;8161;-33.910;151.156;2023-02-04T14:43:27;23.10;90.40
16114;DHT22;8161;-33.910;151.156;2023-02-04T14:45:54;22.70;83.50
16114;DHT22;8161;-33.910;151.156;2023-02-04T14:48:21;23.00;90.30
16114;DHT22;8161;-33.910;151.156;2023-02-04T14:50:48;23.40;90.90
16114;DHT22;8161;-33.910;151.156;2023-02-04T14:53:15;23.50;90.80
16114;DHT22;8161;-33.910;151.156;2023-02-04T14:55:43;23.40;84.10
16114;DHT22;8161;-33.910;151.156;2023-02-04T14:58:10;23.40;90.80
16114;DHT22;8161;-33.910;151.156;2023-02-04T15:00:37;23.20;90.80
16114;DHT22;8161;-33.910;151.156;2023-02-04T15:03:05;23.20;90.90
16114;DHT22;8161;-33.910;151.156;2023-02-04T15:05:32;22.90;91.10
16114;DHT22;8161;-33.910;151.156;2023-02-04T15:07:59;23.00;91.00
16114;DHT22;8161;-33.910;151.156;2023-02-04T15:10:27;23.00;85.40
16114;DHT22;8161;-33.910;151.156;2023-02-04T15:12:54;22.90;91.20
16114;DHT22;8161;-33.910;151.156;2023-02-04T15:15:21;22.70;91.40
16114;DHT22;8161;-33.910;151.156;2023-02-04T15:17:48;23.10;91.80
16114;DHT22;8161;-33.910;151.156;2023-02-04T15:20:16;23.20;91.90
16114;DHT22;8161;-33.910;151.156;2023-02-04T15:22:43;22.90;86.90
16114;DHT22;8161;-33.910;151.156;2023-02-04T15:25:12;23.00;92.10
16114;DHT22;8161;-33.910;151.156;2023-02-04T15:27:39;22.70;92.20
16114;DHT22;8161;-33.910;151.156;2023-02-04T15:30:08;23.20;89.70
16114;DHT22;8161;-33.910;151.156;2023-02-04T15:32:35;23.00;92.10
16114;DHT22;8161;-33.910;151.156;2023-02-04T15:35:03;22.70;92.30